Aérodrome :
LOGIN :

S'inscrire | Disclaimer

   EN    FR    IT 

 










Légende :    VFR   VFR Marginal   IFR   IFR Intensif   IFR Très Intensif
Visi : 
Plafond : 
>= 8 km
>= 3000ft
5 à 8 km
1000 à 3000 ft
1500m à 5 km
500 à 1000 ft
800 à 1500m
200 à 500 ft
< 800m
< 200 ft
Symboles :   Orages  Brouillard  Fortes neiges  Fortes précipitations  Vent > 20 kt
SIGMETs :   Divers  Orages  Givrage  Turbulence  Onde Orograph.  Cendres Volcan.






- Altitude de l'aérodrome : 1895 ft


LSMM - Meiringen

DERNIER METAR :
  • 101250Z AUTO 27005KT 240V340 9999NDV NCD 20/03 Q1022 RMK

METARs EXPIRÉS :
  • 101220Z AUTO 26005KT 230V320 9999NDV NCD 19/03 Q1022 RMK
  • 101150Z AUTO 27006KT 230V320 9999NDV NCD 19/03 Q1023 RMK
  • 101120Z AUTO 26006KT 200V320 9999NDV NCD 18/04 Q1023 RMK
  • 101050Z AUTO 25007KT 230V300 9999NDV NCD 17/03 Q1023 RMK
  • 101020Z AUTO 27008KT 250V320 9999NDV NCD 17/05 Q1023 RMK

Prévision TAF périmée.



MET'MAP, la Météo Aéronautique d'un coup d'oeil ! - Copyright ORBIFLY Décembre 2007 - Disclaimer

ORBIFLY MET'MAP TEAM :

Programmation & Développement : Alexandra Zaïnal
Sur une idée originale de : Baudouin d'Aumeries
Assistance à la programmation : Marc-Olivier Méhu
Soutien technique & logistique : Manuel Goepfert

Contact : metmap@orbifly.com




SOURCES & CREDITS :

   NOAA